Time,TemperatureF,DewpointF,PressureIn,WindDirection,WindDirectionDegrees,WindSpeedMPH,WindSpeedGustMPH,Humidity,HourlyPrecipIn,Conditions,Clouds,dailyrainin,SolarRadiationWatts/m^2,SoftwareType,DateUTC
2013-04-06 00:04:00,42.4,34.0,31.44,SSE,163,6.0,18.0,73,0.00,,,0.00,0,weatherlink.com 1.10,2013-04-06 06:04:00,
2013-04-06 00:34:00,40.9,35.0,31.45,SSE,168,6.0,9.0,80,0.00,,,0.00,0,weatherlink.com 1.10,2013-04-06 06:34:00,
2013-04-06 00:49:00,40.4,35.0,31.44,SSE,163,7.0,15.0,80,0.00,,,0.00,0,weatherlink.com 1.10,2013-04-06 06:49:00,
2013-04-06 01:04:00,40.6,35.0,31.44,South,181,9.0,12.0,79,0.00,,,0.00,0,weatherlink.com 1.10,2013-04-06 07:04:00,
2013-04-06 01:19:00,40.6,35.0,31.43,SSE,157,5.0,13.0,79,0.00,,,0.00,0,weatherlink.com 1.10,2013-04-06 07:19:00,
2013-04-06 01:49:00,40.8,34.0,31.44,SE,145,9.0,11.0,77,0.00,,,0.00,0,weatherlink.com 1.10,2013-04-06 07:49:00,
2013-04-06 02:04:00,41.0,34.0,31.43,SE,141,9.0,13.0,77,0.00,,,0.00,0,weatherlink.com 1.10,2013-04-06 08:04:00,
2013-04-06 02:19:00,41.0,34.0,31.43,SSE,155,12.0,14.0,77,0.00,,,0.00,0,weatherlink.com 1.10,2013-04-06 08:19:00,
2013-04-06 02:34:00,41.3,34.0,31.42,SSE,151,12.0,16.0,76,0.00,,,0.00,0,weatherlink.com 1.10,2013-04-06 08:34:00,
2013-04-06 02:49:00,41.6,34.0,31.42,SSE,152,7.0,15.0,74,0.00,,,0.00,0,weatherlink.com 1.10,2013-04-06 08:49:00,
2013-04-06 03:04:00,41.4,34.0,31.41,SSE,153,6.0,12.0,74,0.00,,,0.00,0,weatherlink.com 1.10,2013-04-06 09:04:00,
2013-04-06 03:19:00,41.7,34.0,31.42,South,169,10.0,14.0,74,0.00,,,0.00,0,weatherlink.com 1.10,2013-04-06 09:19:00,
2013-04-06 03:34:00,40.6,34.0,31.41,SSE,163,5.0,10.0,78,0.00,,,0.00,0,weatherlink.com 1.10,2013-04-06 09:34:00,
2013-04-06 03:49:00,39.4,34.0,31.41,South,178,3.0,5.0,82,0.00,,,0.00,0,weatherlink.com 1.10,2013-04-06 09:49:00,
2013-04-06 04:19:00,38.2,34.0,31.41,South,181,0.0,1.0,86,0.00,,,0.00,0,weatherlink.com 1.10,2013-04-06 10:19:00,
2013-04-06 04:34:00,37.9,34.0,31.40,South,171,0.0,3.0,87,0.00,,,0.00,0,weatherlink.com 1.10,2013-04-06 10:34:00,
2013-04-06 04:49:00,40.3,35.0,31.40,SSW,195,1.0,6.0,80,0.00,,,0.00,0,weatherlink.com 1.10,2013-04-06 10:49:00,
2013-04-06 05:04:00,39.4,35.0,31.40,SW,232,0.0,3.0,83,0.00,,,0.00,0,weatherlink.com 1.10,2013-04-06 11:04:00,
2013-04-06 05:34:00,38.2,34.0,31.39,NNW,348,0.0,4.0,86,0.00,,,0.00,0,weatherlink.com 1.10,2013-04-06 11:34:00,
2013-04-06 05:49:00,37.8,35.0,31.40,North,350,1.0,2.0,88,0.00,,,0.00,0,weatherlink.com 1.10,2013-04-06 11:49:00,
2013-04-06 06:04:00,37.7,35.0,31.40,North,355,0.0,3.0,88,0.00,,,0.00,0,weatherlink.com 1.10,2013-04-06 12:04:00,
2013-04-06 06:19:00,37.6,34.0,31.40,NNE,17,0.0,3.0,88,0.00,,,0.00,0,weatherlink.com 1.10,2013-04-06 12:19:00,
2013-04-06 06:34:00,37.7,35.0,31.40,NNE,19,0.0,1.0,89,0.00,,,0.00,0,weatherlink.com 1.10,2013-04-06 12:34:00,
2013-04-06 06:49:00,38.2,35.0,31.39,SW,233,0.0,3.0,89,0.00,,,0.00,0,weatherlink.com 1.10,2013-04-06 12:49:00,
2013-04-06 07:04:00,38.2,35.0,31.39,SSW,194,0.0,1.0,88,0.00,,,0.00,0,weatherlink.com 1.10,2013-04-06 13:04:00,
2013-04-06 07:19:00,38.0,35.0,31.39,SSW,194,0.0,0.0,89,0.00,,,0.00,5,weatherlink.com 1.10,2013-04-06 13:19:00,
2013-04-06 07:34:00,38.1,35.0,31.40,SW,229,0.0,3.0,89,0.00,,,0.00,23,weatherlink.com 1.10,2013-04-06 13:34:00,
2013-04-06 08:04:00,38.2,36.0,31.41,NNW,343,6.0,6.0,90,0.01,,,0.01,33,weatherlink.com 1.10,2013-04-06 14:04:00,
2013-04-06 08:20:00,38.1,36.0,31.40,NNW,348,1.0,6.0,90,0.02,,,0.02,37,weatherlink.com 1.10,2013-04-06 14:20:00,
2013-04-06 08:35:00,38.1,36.0,31.41,North,360,1.0,3.0,90,0.03,,,0.03,21,weatherlink.com 1.10,2013-04-06 14:35:00,
2013-04-06 08:50:00,38.0,36.0,31.41,NNE,17,1.0,4.0,91,0.04,,,0.04,54,weatherlink.com 1.10,2013-04-06 14:50:00,
2013-04-06 09:05:00,39.4,37.0,31.41,SSE,163,6.0,6.0,89,0.04,,,0.05,53,weatherlink.com 1.10,2013-04-06 15:05:00,
2013-04-06 09:20:00,40.0,37.0,31.41,South,180,6.0,7.0,88,0.04,,,0.06,70,weatherlink.com 1.10,2013-04-06 15:20:00,
2013-04-06 09:35:00,40.4,37.0,31.41,SSE,162,8.0,15.0,87,0.04,,,0.07,137,weatherlink.com 1.10,2013-04-06 15:35:00,
2013-04-06 09:50:00,41.1,38.0,31.41,South,175,10.0,11.0,88,0.03,,,0.07,221,weatherlink.com 1.10,2013-04-06 15:50:00,
2013-04-06 10:05:00,41.1,38.0,31.40,South,175,7.0,13.0,87,0.02,,,0.07,276,weatherlink.com 1.10,2013-04-06 16:05:00,
2013-04-06 10:20:00,41.0,38.0,31.40,SW,216,6.0,13.0,90,0.01,,,0.07,139,weatherlink.com 1.10,2013-04-06 16:20:00,
2013-04-06 10:35:00,41.3,39.0,31.41,SSW,205,6.0,13.0,91,0.00,,,0.07,132,weatherlink.com 1.10,2013-04-06 16:35:00,
2013-04-06 10:50:00,41.0,39.0,31.41,SSW,209,7.0,12.0,91,0.00,,,0.07,162,weatherlink.com 1.10,2013-04-06 16:50:00,
2013-04-06 11:05:00,41.8,39.0,31.41,SSW,200,7.0,12.0,91,0.00,,,0.07,207,weatherlink.com 1.10,2013-04-06 17:05:00,
2013-04-06 11:20:00,42.5,40.0,31.41,SW,215,8.0,11.0,90,0.00,,,0.07,241,weatherlink.com 1.10,2013-04-06 17:20:00,
2013-04-06 11:35:00,42.9,39.0,31.41,SSW,206,8.0,12.0,87,0.00,,,0.07,295,weatherlink.com 1.10,2013-04-06 17:35:00,
2013-04-06 11:50:00,44.0,40.0,31.41,South,178,11.0,13.0,86,0.00,,,0.07,308,weatherlink.com 1.10,2013-04-06 17:50:00,
2013-04-06 12:05:00,45.1,40.0,31.39,SSE,163,10.0,18.0,81,0.00,,,0.07,446,weatherlink.com 1.10,2013-04-06 18:05:00,
2013-04-06 12:20:00,45.6,39.0,31.39,SSE,155,7.0,14.0,77,0.00,,,0.07,399,weatherlink.com 1.10,2013-04-06 18:20:00,
2013-04-06 12:35:00,46.5,37.0,31.38,SSE,164,9.0,16.0,70,0.00,,,0.07,388,weatherlink.com 1.10,2013-04-06 18:35:00,
2013-04-06 12:50:00,46.9,36.0,31.37,South,191,6.0,18.0,66,0.00,,,0.07,207,weatherlink.com 1.10,2013-04-06 18:50:00,
2013-04-06 13:05:00,47.2,37.0,31.37,SSE,164,12.0,17.0,67,0.00,,,0.07,200,weatherlink.com 1.10,2013-04-06 19:05:00,
2013-04-06 13:20:00,47.8,37.0,31.37,SSW,195,10.0,19.0,67,0.00,,,0.07,352,weatherlink.com 1.10,2013-04-06 19:20:00,
2013-04-06 13:35:00,43.6,34.0,31.39,NW,304,15.0,28.0,69,0.00,,,0.07,30,weatherlink.com 1.10,2013-04-06 19:35:00,
2013-04-06 13:50:00,35.3,33.0,31.41,NE,44,4.0,16.0,90,0.00,,,0.07,32,weatherlink.com 1.10,2013-04-06 19:50:00,
2013-04-06 14:05:00,35.7,33.0,31.42,NNE,25,1.0,9.0,91,0.03,,,0.10,255,weatherlink.com 1.10,2013-04-06 20:05:00,
2013-04-06 14:20:00,38.4,36.0,31.43,NNW,345,14.0,23.0,91,0.07,,,0.14,439,weatherlink.com 1.10,2013-04-06 20:20:00,
2013-04-06 14:35:00,39.1,36.0,31.42,NNW,333,4.0,16.0,89,0.09,,,0.16,216,weatherlink.com 1.10,2013-04-06 20:35:00,
2013-04-06 14:50:00,39.6,36.0,31.42,NNW,334,9.0,19.0,85,0.10,,,0.17,246,weatherlink.com 1.10,2013-04-06 20:50:00,
2013-04-06 15:05:00,41.2,32.0,31.42,NW,321,12.0,28.0,70,0.07,,,0.17,237,weatherlink.com 1.10,2013-04-06 21:05:00,
2013-04-06 15:20:00,-999.0,-99.9,31.42,North,-999,-999.0,-999.0,-999,0.03,,,0.17,,weatherlink.com 1.10,2013-04-06 21:20:00,
2013-04-06 15:35:00,-999.0,-99.9,31.43,North,-999,-999.0,-999.0,-999,0.01,,,0.17,,weatherlink.com 1.10,2013-04-06 21:35:00,
2013-04-06 15:51:00,-999.0,-99.9,31.44,North,-999,-999.0,-999.0,-999,0.00,,,0.17,,weatherlink.com 1.10,2013-04-06 21:51:00,
2013-04-06 16:05:00,43.6,32.0,31.44,WNW,288,6.0,11.0,63,0.00,,,0.17,172,weatherlink.com 1.10,2013-04-06 22:05:00,
2013-04-06 16:20:00,43.6,32.0,31.43,South,180,7.0,12.0,63,0.00,,,0.17,202,weatherlink.com 1.10,2013-04-06 22:20:00,
2013-04-06 16:35:00,44.4,31.0,31.43,NNW,336,8.0,10.0,60,0.00,,,0.17,216,weatherlink.com 1.10,2013-04-06 22:35:00,
2013-04-06 16:50:00,44.4,29.0,31.43,SSE,163,10.0,11.0,55,0.00,,,0.17,239,weatherlink.com 1.10,2013-04-06 22:50:00,
2013-04-06 17:05:00,45.9,31.0,31.44,WNW,296,11.0,22.0,57,0.00,,,0.17,729,weatherlink.com 1.10,2013-04-06 23:05:00,
2013-04-06 17:21:00,47.1,28.0,31.43,West,262,5.0,18.0,48,0.00,,,0.17,367,weatherlink.com 1.10,2013-04-06 23:21:00,
2013-04-06 17:36:00,46.0,28.0,31.43,WNW,302,9.0,20.0,50,0.00,,,0.17,214,weatherlink.com 1.10,2013-04-06 23:36:00,
2013-04-06 17:51:00,44.8,30.0,31.43,NNW,338,7.0,16.0,56,0.00,,,0.17,149,weatherlink.com 1.10,2013-04-06 23:51:00,
2013-04-06 18:06:00,43.4,32.0,31.44,NW,306,11.0,22.0,65,0.00,,,0.17,144,weatherlink.com 1.10,2013-04-07 00:06:00,
2013-04-06 18:21:00,39.0,33.0,31.44,North,355,9.0,21.0,78,0.00,,,0.17,141,weatherlink.com 1.10,2013-04-07 00:21:00,
2013-04-06 18:36:00,38.1,33.0,31.44,NNW,346,2.0,11.0,81,0.00,,,0.17,67,weatherlink.com 1.10,2013-04-07 00:36:00,
2013-04-06 18:51:00,39.5,30.0,31.45,WNW,303,0.0,21.0,69,0.00,,,0.17,33,weatherlink.com 1.10,2013-04-07 00:51:00,
2013-04-06 19:06:00,40.1,33.0,31.45,SW,227,6.0,19.0,77,0.00,,,0.17,97,weatherlink.com 1.10,2013-04-07 01:06:00,
2013-04-06 19:21:00,39.8,33.0,31.45,North,5,7.0,13.0,78,0.00,,,0.17,81,weatherlink.com 1.10,2013-04-07 01:21:00,
2013-04-06 19:36:00,39.9,31.0,31.45,North,9,1.0,7.0,71,0.00,,,0.17,53,weatherlink.com 1.10,2013-04-07 01:36:00,
2013-04-06 19:51:00,39.5,32.0,31.44,North,360,3.0,5.0,73,0.00,,,0.17,25,weatherlink.com 1.10,2013-04-07 01:51:00,
2013-04-06 20:06:00,40.0,30.0,31.44,NW,315,4.0,13.0,68,0.00,,,0.17,0,weatherlink.com 1.10,2013-04-07 02:06:00,
2013-04-06 20:21:00,40.0,30.0,31.44,NNW,344,3.0,8.0,68,0.00,,,0.17,0,weatherlink.com 1.10,2013-04-07 02:21:00,
2013-04-06 20:36:00,39.5,31.0,31.45,NW,323,2.0,6.0,71,0.00,,,0.17,0,weatherlink.com 1.10,2013-04-07 02:36:00,
2013-04-06 21:06:00,39.1,32.0,31.46,NNE,14,0.0,1.0,75,0.00,,,0.17,0,weatherlink.com 1.10,2013-04-07 03:06:00,
2013-04-06 21:21:00,40.7,31.0,31.45,NE,51,3.0,15.0,68,0.00,,,0.17,0,weatherlink.com 1.10,2013-04-07 03:21:00,
2013-04-06 21:36:00,40.8,28.0,31.45,SW,234,5.0,10.0,61,0.00,,,0.17,0,weatherlink.com 1.10,2013-04-07 03:36:00,
2013-04-06 22:06:00,39.5,32.0,31.47,SSW,198,3.0,7.0,74,0.00,,,0.17,0,weatherlink.com 1.10,2013-04-07 04:06:00,
2013-04-06 22:36:00,37.7,32.0,31.46,North,5,2.0,4.0,80,0.00,,,0.17,0,weatherlink.com 1.10,2013-04-07 04:36:00,
2013-04-06 22:51:00,36.9,32.0,31.46,East,80,7.0,8.0,82,0.01,,,0.18,0,weatherlink.com 1.10,2013-04-07 04:51:00,
2013-04-06 23:51:00,38.3,30.0,31.45,SW,217,0.0,1.0,72,0.00,,,0.18,0,weatherlink.com 1.10,2013-04-07 05:51:00,